Phippsburg, Colorado
Current Conditions -  °F | °C
As of 10:34 PM on Wednesday 22 Oct 2014 (Local Time) from KSBS Reporting Station
Clear Clear  
Wind Chill: 37°   Ceiling: Unl
Heat Index: 40°   Visibility: 10mi
Dew Point: 32°   Wind: 5mph
Humidity: 74%   Direction: 100°E
Pressure: 30.27"   Gusts: NA
Location:  40.23°N, 106.94°W
Report Text: KSBS 230434Z AUTO 10004KT 10SM CLR 04/00 A3027 RMK AO1 T00440002
Loading
Personal Weather Stations






























Interactive Weather Map
Tropical Storm Tracking
New forecast layout! Learn more

10-Day Weather Forecast

Advertisements
Track Severe Weather on mobile